Aérodrome :
LOGIN :

S'inscrire | Disclaimer

   EN    FR    IT 

 










Légende :    VFR   VFR Marginal   IFR   IFR Intensif   IFR Très Intensif
Visi : 
Plafond : 
>= 8 km
>= 3000ft
5 à 8 km
1000 à 3000 ft
1500m à 5 km
500 à 1000 ft
800 à 1500m
200 à 500 ft
< 800m
< 200 ft
Symboles :   Orages  Brouillard  Fortes neiges  Fortes précipitations  Vent > 20 kt
SIGMETs :   Divers  Orages  Givrage  Turbulence  Onde Orograph.  Cendres Volcan.







- Altitude de l'aérodrome : 1649 ft
- Code IATA : HHN


EDFH - Frankfurt-Hahn Rhineland-Palatinate

DERNIER METAR :
  • 230450Z 13012KT 4000 BR BKN004 M05/M05 Q0995

METARs EXPIRÉS :
  • 230420Z 13012KT 4000 BR BKN003 M05/M05 Q0995
  • 230350Z 13010KT 110V170 4000 BR BKN003 M05/M05 Q0996
  • 230320Z 13009KT 4000 BR BKN004 M05/M05 Q0996
  • 230250Z 13007KT 110V170 4000 BR BKN004 M05/M05 Q0996
  • 230220Z 14009KT 4000 -SN BKN004 M05/M05 Q0997

TAF TAF EDFH
Valide du 23 à 00h jusqu'au 24 à 00h UTC


222300Z 2300/2324 14012KT 8000 BKN012
TEMPO 2300/2310 2500 -SN BKN006
PROB30
TEMPO 2300/2304 1400 SN BKN003
TEMPO 2310/2313 3000 BR BKN008
TEMPO 2313/2324 SCT012 BKN020
Pas de NOTAMs connus pour ce terrain.



MET'MAP, la Météo Aéronautique d'un coup d'oeil ! - Copyright ORBIFLY Décembre 2007 - Disclaimer

ORBIFLY MET'MAP TEAM :

Programmation & Développement : Alexandra Zaïnal
Conception & Développement : Baudouin d'Aumeries
Co-Programmation & Développement : Marc-Olivier Méhu
Soutien technique & logistique : Manuel Goepfert

Contact : metmap@orbifly.com




SOURCES & CREDITS :

   NOAA